Sidell, IL (61876)

12:30 PM CDT on September 05, 2015 (GMT -0500)
APRSWXNET | | Change Station
CLOSE
Current Station
Personal Weather Station
Location: Newman, IL
Elevation: 649 ft
Nearby Weather Stations
Active Advisory: Flood Warning Active Notice: Local Storm Report

Elev 649 ft 39.80 °N, 87.98 °W | Updated 32 minutes ago

Partly Cloudy
Partly Cloudy
85 °F
Feels Like 93 °F
N
3
Wind Variable Wind from NE
Gusts 5.0 mph

Today
High -- | Low -- °F
--% Chance of Precip.
Yesterday
High -- | Low -- °F
Precip. -- in
6:22 AM 7:16 PM
Waning Gibbous, 47% visible
Pressure 30.13 in
Visibility 10.0 miles
Clouds Clear
Heat Index 93 °F
Dew Point 75 °F
Humidity 72%
Rainfall in
Snow Depth Not available.
UV 9 out of 12
Pollen 10.10 out of 12
Air Quality Not available.
Flu Activity Not available.
METAR KPRG 051715Z AUTO 08005KT 10SM CLR 29/23 A3013 RMK AO2 T02920232
Pressure 30.13 in
Visibility 10.0 miles
Clouds Clear
Heat Index 93 °F
Dew Point 75 °F
Humidity 72%
Rainfall in
Snow Depth Not available.
UV 9 out of 12
Pollen 10.10 out of 12
Air Quality Not available.
Flu Activity Not available.
METAR KPRG 051715Z AUTO 08005KT 10SM CLR 29/23 A3013 RMK AO2 T02920232

10-Day Weather Forecast

×

Almanac

Astronomy

Sep. 05, 2015 Rise Set
Actual Time
Civil Twilight
Nautical Twilight
Astronomical Twilight
Moon
Length of Visible Light
Length of Day
Tomorrow will be .
, % of the Moon is Illuminated

Today's Extremes

State Highs State Lows

Community

WunderPhotos

Upload Photos

1,852,508 photos uploaded!

WunderBlogs® & News

Nearby

Air Quality

  Air Quality AQ Index Pollutant
Not available.

Snow Depth

Station Depth Elevation

Earthquake Activity

City Distance Mag. Time & Date
Minimum magnitude displayed is 2.5.

Coastal Water Temperatures

Place Temperature

Stations

Nearby Weather Stations

Station Location Temp. Windchill Dew Point Humidity Wind Precip. Elev Updated Type
                   
Flood Warning
Statement as of 12:29 PM CDT on September 05, 2015

... The Flash Flood Warning for northeastern Vermilion County will
expire at 1230 PM CDT...

The Vermilion County emergency manager and Hoopeston Police Department
report that the flood waters continue to recede across the area... and no
longer pose a threat to life or property. The heavy rainfall threat has
ended for the time being early this afternoon. Please continue to heed
any Road closures.

Lat... Lon 4030 8762 4049 8773 4049 8753 4031 8753


Smith